sensor_id;sensor_type;location;lat;lon;timestamp;P1;durP1;ratioP1;P2;durP2;ratioP2
17741;SDS011;8993;51.822;-2.268;2022-10-15T00:00:06;11.81;;;2.09;;
17741;SDS011;8993;51.822;-2.268;2022-10-15T00:05:11;11.53;;;1.82;;
17741;SDS011;8993;51.822;-2.268;2022-10-15T00:10:17;9.14;;;1.41;;
17741;SDS011;8993;51.822;-2.268;2022-10-15T00:15:21;7.16;;;1.44;;
17741;SDS011;8993;51.822;-2.268;2022-10-15T00:20:25;10.56;;;1.53;;
17741;SDS011;8993;51.822;-2.268;2022-10-15T00:25:30;6.05;;;1.45;;
17741;SDS011;8993;51.822;-2.268;2022-10-15T00:30:34;6.02;;;1.32;;
17741;SDS011;8993;51.822;-2.268;2022-10-15T00:35:39;6.83;;;1.47;;
17741;SDS011;8993;51.822;-2.268;2022-10-15T00:40:43;7.17;;;1.44;;
17741;SDS011;8993;51.822;-2.268;2022-10-15T00:45:48;7.17;;;1.38;;
17741;SDS011;8993;51.822;-2.268;2022-10-15T00:50:52;7.47;;;1.67;;
17741;SDS011;8993;51.822;-2.268;2022-10-15T00:55:57;7.68;;;1.65;;
17741;SDS011;8993;51.822;-2.268;2022-10-15T01:01:03;6.85;;;1.54;;
17741;SDS011;8993;51.822;-2.268;2022-10-15T01:06:07;10.13;;;1.97;;
17741;SDS011;8993;51.822;-2.268;2022-10-15T01:11:16;12.05;;;1.87;;
17741;SDS011;8993;51.822;-2.268;2022-10-15T01:16:17;10.62;;;1.86;;
17741;SDS011;8993;51.822;-2.268;2022-10-15T01:21:21;9.11;;;2.05;;
17741;SDS011;8993;51.822;-2.268;2022-10-15T01:26:32;12.84;;;2.37;;
17741;SDS011;8993;51.822;-2.268;2022-10-15T01:31:31;10.56;;;2.46;;
17741;SDS011;8993;51.822;-2.268;2022-10-15T01:36:35;13.21;;;2.68;;
17741;SDS011;8993;51.822;-2.268;2022-10-15T01:41:39;9.83;;;2.15;;
17741;SDS011;8993;51.822;-2.268;2022-10-15T01:46:44;8.08;;;1.83;;
17741;SDS011;8993;51.822;-2.268;2022-10-15T01:51:48;10.83;;;1.78;;
17741;SDS011;8993;51.822;-2.268;2022-10-15T01:56:52;8.34;;;1.69;;
17741;SDS011;8993;51.822;-2.268;2022-10-15T02:01:56;10.57;;;1.72;;
17741;SDS011;8993;51.822;-2.268;2022-10-15T02:07:02;10.66;;;1.71;;
17741;SDS011;8993;51.822;-2.268;2022-10-15T02:12:08;9.34;;;1.61;;
17741;SDS011;8993;51.822;-2.268;2022-10-15T02:17:09;10.19;;;1.99;;
17741;SDS011;8993;51.822;-2.268;2022-10-15T02:22:15;9.18;;;1.77;;
17741;SDS011;8993;51.822;-2.268;2022-10-15T02:27:19;8.33;;;1.73;;
17741;SDS011;8993;51.822;-2.268;2022-10-15T02:32:24;10.78;;;1.80;;
17741;SDS011;8993;51.822;-2.268;2022-10-15T02:37:29;10.57;;;1.75;;
17741;SDS011;8993;51.822;-2.268;2022-10-15T02:42:33;7.25;;;1.65;;
17741;SDS011;8993;51.822;-2.268;2022-10-15T02:47:38;6.89;;;1.79;;
17741;SDS011;8993;51.822;-2.268;2022-10-15T02:52:43;9.68;;;2.48;;
17741;SDS011;8993;51.822;-2.268;2022-10-15T02:57:47;6.96;;;1.95;;
17741;SDS011;8993;51.822;-2.268;2022-10-15T03:02:53;8.52;;;2.02;;
17741;SDS011;8993;51.822;-2.268;2022-10-15T03:07:58;9.27;;;1.97;;
17741;SDS011;8993;51.822;-2.268;2022-10-15T03:13:02;10.53;;;1.97;;
17741;SDS011;8993;51.822;-2.268;2022-10-15T03:18:06;9.68;;;1.37;;
17741;SDS011;8993;51.822;-2.268;2022-10-15T03:23:10;8.93;;;1.06;;
17741;SDS011;8993;51.822;-2.268;2022-10-15T03:28:14;9.39;;;1.13;;
17741;SDS011;8993;51.822;-2.268;2022-10-15T03:33:19;5.27;;;0.99;;
17741;SDS011;8993;51.822;-2.268;2022-10-15T03:38:23;8.25;;;1.09;;
17741;SDS011;8993;51.822;-2.268;2022-10-15T03:43:28;7.61;;;1.36;;
17741;SDS011;8993;51.822;-2.268;2022-10-15T03:48:32;9.49;;;1.96;;
17741;SDS011;8993;51.822;-2.268;2022-10-15T03:53:36;6.03;;;1.56;;
17741;SDS011;8993;51.822;-2.268;2022-10-15T03:58:40;4.99;;;0.90;;
17741;SDS011;8993;51.822;-2.268;2022-10-15T04:03:44;4.54;;;1.05;;
17741;SDS011;8993;51.822;-2.268;2022-10-15T04:08:48;3.24;;;0.73;;
17741;SDS011;8993;51.822;-2.268;2022-10-15T04:13:53;2.64;;;0.46;;
17741;SDS011;8993;51.822;-2.268;2022-10-15T04:18:57;2.64;;;0.46;;
17741;SDS011;8993;51.822;-2.268;2022-10-15T04:24:02;3.67;;;0.29;;
17741;SDS011;8993;51.822;-2.268;2022-10-15T04:29:06;2.03;;;0.32;;
17741;SDS011;8993;51.822;-2.268;2022-10-15T04:34:10;2.03;;;0.44;;
17741;SDS011;8993;51.822;-2.268;2022-10-15T04:39:14;3.12;;;0.96;;
17741;SDS011;8993;51.822;-2.268;2022-10-15T04:44:19;3.29;;;0.51;;
17741;SDS011;8993;51.822;-2.268;2022-10-15T04:49:23;4.02;;;0.57;;
17741;SDS011;8993;51.822;-2.268;2022-10-15T04:54:28;4.37;;;1.21;;
17741;SDS011;8993;51.822;-2.268;2022-10-15T04:59:32;3.68;;;0.37;;
17741;SDS011;8993;51.822;-2.268;2022-10-15T05:04:38;2.20;;;0.30;;
17741;SDS011;8993;51.822;-2.268;2022-10-15T05:09:42;1.84;;;0.35;;
17741;SDS011;8993;51.822;-2.268;2022-10-15T05:14:50;1.41;;;0.30;;
17741;SDS011;8993;51.822;-2.268;2022-10-15T05:19:54;1.47;;;0.29;;
17741;SDS011;8993;51.822;-2.268;2022-10-15T05:25:00;2.07;;;0.41;;
17741;SDS011;8993;51.822;-2.268;2022-10-15T05:30:05;2.15;;;0.36;;
17741;SDS011;8993;51.822;-2.268;2022-10-15T05:35:09;3.98;;;0.41;;
17741;SDS011;8993;51.822;-2.268;2022-10-15T05:40:14;2.79;;;0.47;;
17741;SDS011;8993;51.822;-2.268;2022-10-15T05:45:20;2.92;;;0.45;;
17741;SDS011;8993;51.822;-2.268;2022-10-15T05:50:24;3.96;;;0.56;;
17741;SDS011;8993;51.822;-2.268;2022-10-15T05:55:29;4.95;;;0.49;;
17741;SDS011;8993;51.822;-2.268;2022-10-15T06:00:34;4.85;;;0.47;;
17741;SDS011;8993;51.822;-2.268;2022-10-15T06:05:37;5.14;;;0.42;;
17741;SDS011;8993;51.822;-2.268;2022-10-15T06:10:42;2.47;;;0.42;;
17741;SDS011;8993;51.822;-2.268;2022-10-15T06:15:46;2.83;;;0.42;;
17741;SDS011;8993;51.822;-2.268;2022-10-15T06:20:51;2.39;;;0.50;;
17741;SDS011;8993;51.822;-2.268;2022-10-15T06:25:55;4.38;;;0.47;;
17741;SDS011;8993;51.822;-2.268;2022-10-15T06:31:03;3.36;;;0.42;;
17741;SDS011;8993;51.822;-2.268;2022-10-15T06:36:07;3.08;;;0.39;;
17741;SDS011;8993;51.822;-2.268;2022-10-15T06:41:11;3.13;;;0.36;;
17741;SDS011;8993;51.822;-2.268;2022-10-15T06:46:15;2.75;;;0.38;;
17741;SDS011;8993;51.822;-2.268;2022-10-15T06:51:19;2.17;;;0.30;;
17741;SDS011;8993;51.822;-2.268;2022-10-15T06:56:23;3.09;;;0.28;;
17741;SDS011;8993;51.822;-2.268;2022-10-15T07:01:28;3.23;;;0.24;;
17741;SDS011;8993;51.822;-2.268;2022-10-15T07:06:33;3.37;;;0.20;;
17741;SDS011;8993;51.822;-2.268;2022-10-15T07:11:36;1.50;;;0.21;;
17741;SDS011;8993;51.822;-2.268;2022-10-15T07:16:41;2.62;;;0.24;;
17741;SDS011;8993;51.822;-2.268;2022-10-15T07:21:45;3.71;;;0.27;;
17741;SDS011;8993;51.822;-2.268;2022-10-15T07:26:49;2.58;;;0.28;;
17741;SDS011;8993;51.822;-2.268;2022-10-15T07:31:54;3.01;;;0.32;;
17741;SDS011;8993;51.822;-2.268;2022-10-15T07:36:58;4.40;;;0.33;;
17741;SDS011;8993;51.822;-2.268;2022-10-15T07:42:02;2.99;;;0.32;;
17741;SDS011;8993;51.822;-2.268;2022-10-15T07:47:07;2.46;;;0.34;;
17741;SDS011;8993;51.822;-2.268;2022-10-15T07:52:11;2.47;;;0.39;;
17741;SDS011;8993;51.822;-2.268;2022-10-15T07:57:15;3.58;;;0.38;;
17741;SDS011;8993;51.822;-2.268;2022-10-15T08:02:20;2.65;;;0.40;;
17741;SDS011;8993;51.822;-2.268;2022-10-15T08:07:24;3.25;;;0.34;;
17741;SDS011;8993;51.822;-2.268;2022-10-15T08:12:28;4.13;;;0.53;;
17741;SDS011;8993;51.822;-2.268;2022-10-15T08:17:32;4.72;;;0.62;;
17741;SDS011;8993;51.822;-2.268;2022-10-15T08:22:38;4.22;;;0.76;;
17741;SDS011;8993;51.822;-2.268;2022-10-15T08:27:42;3.88;;;0.48;;
17741;SDS011;8993;51.822;-2.268;2022-10-15T08:32:46;3.66;;;0.44;;
17741;SDS011;8993;51.822;-2.268;2022-10-15T08:37:52;3.27;;;0.44;;
17741;SDS011;8993;51.822;-2.268;2022-10-15T08:42:55;3.28;;;0.52;;
17741;SDS011;8993;51.822;-2.268;2022-10-15T08:48:00;3.98;;;0.44;;
17741;SDS011;8993;51.822;-2.268;2022-10-15T08:53:03;5.96;;;0.45;;
17741;SDS011;8993;51.822;-2.268;2022-10-15T08:58:11;5.86;;;0.87;;
17741;SDS011;8993;51.822;-2.268;2022-10-15T09:03:17;8.64;;;1.13;;
17741;SDS011;8993;51.822;-2.268;2022-10-15T09:08:19;6.89;;;0.68;;
17741;SDS011;8993;51.822;-2.268;2022-10-15T09:13:23;5.06;;;0.54;;
17741;SDS011;8993;51.822;-2.268;2022-10-15T09:18:26;6.01;;;0.49;;
17741;SDS011;8993;51.822;-2.268;2022-10-15T09:23:31;4.81;;;0.57;;
17741;SDS011;8993;51.822;-2.268;2022-10-15T09:28:36;7.26;;;0.65;;
17741;SDS011;8993;51.822;-2.268;2022-10-15T09:33:38;7.00;;;0.66;;
17741;SDS011;8993;51.822;-2.268;2022-10-15T09:38:51;8.23;;;0.60;;
17741;SDS011;8993;51.822;-2.268;2022-10-15T09:43:47;8.82;;;0.71;;
17741;SDS011;8993;51.822;-2.268;2022-10-15T09:48:51;9.30;;;0.96;;
17741;SDS011;8993;51.822;-2.268;2022-10-15T09:53:56;11.50;;;0.84;;
17741;SDS011;8993;51.822;-2.268;2022-10-15T09:58:59;13.70;;;1.02;;
17741;SDS011;8993;51.822;-2.268;2022-10-15T10:04:12;14.27;;;1.14;;
17741;SDS011;8993;51.822;-2.268;2022-10-15T10:09:11;12.35;;;1.12;;
17741;SDS011;8993;51.822;-2.268;2022-10-15T10:14:17;11.50;;;0.92;;
17741;SDS011;8993;51.822;-2.268;2022-10-15T10:19:17;11.50;;;0.94;;
17741;SDS011;8993;51.822;-2.268;2022-10-15T10:24:25;10.05;;;0.94;;
17741;SDS011;8993;51.822;-2.268;2022-10-15T10:29:27;9.87;;;0.94;;
17741;SDS011;8993;51.822;-2.268;2022-10-15T10:34:31;10.67;;;0.88;;
17741;SDS011;8993;51.822;-2.268;2022-10-15T10:39:35;10.57;;;0.71;;
17741;SDS011;8993;51.822;-2.268;2022-10-15T10:44:40;11.64;;;0.82;;
17741;SDS011;8993;51.822;-2.268;2022-10-15T10:49:44;11.99;;;0.93;;
17741;SDS011;8993;51.822;-2.268;2022-10-15T10:54:52;9.42;;;0.91;;
17741;SDS011;8993;51.822;-2.268;2022-10-15T10:59:54;12.18;;;0.95;;
17741;SDS011;8993;51.822;-2.268;2022-10-15T11:04:58;10.31;;;0.91;;
17741;SDS011;8993;51.822;-2.268;2022-10-15T11:10:04;12.61;;;0.99;;
17741;SDS011;8993;51.822;-2.268;2022-10-15T11:15:14;12.41;;;1.01;;
17741;SDS011;8993;51.822;-2.268;2022-10-15T11:20:13;11.87;;;1.05;;
17741;SDS011;8993;51.822;-2.268;2022-10-15T11:25:19;12.93;;;0.88;;
17741;SDS011;8993;51.822;-2.268;2022-10-15T11:30:26;13.41;;;0.96;;
17741;SDS011;8993;51.822;-2.268;2022-10-15T11:35:28;15.42;;;1.03;;
17741;SDS011;8993;51.822;-2.268;2022-10-15T11:40:31;11.86;;;1.11;;
17741;SDS011;8993;51.822;-2.268;2022-10-15T11:45:37;12.13;;;1.02;;
17741;SDS011;8993;51.822;-2.268;2022-10-15T11:50:38;12.94;;;1.05;;
17741;SDS011;8993;51.822;-2.268;2022-10-15T11:55:42;14.12;;;1.09;;
17741;SDS011;8993;51.822;-2.268;2022-10-15T12:00:46;13.78;;;1.03;;
17741;SDS011;8993;51.822;-2.268;2022-10-15T12:05:55;14.88;;;1.44;;
17741;SDS011;8993;51.822;-2.268;2022-10-15T12:11:02;16.08;;;1.91;;
17741;SDS011;8993;51.822;-2.268;2022-10-15T12:16:05;15.50;;;1.72;;
17741;SDS011;8993;51.822;-2.268;2022-10-15T12:21:26;16.26;;;2.19;;
17741;SDS011;8993;51.822;-2.268;2022-10-15T12:26:30;20.16;;;3.58;;
17741;SDS011;8993;51.822;-2.268;2022-10-15T12:36:25;17.62;;;1.56;;
17741;SDS011;8993;51.822;-2.268;2022-10-15T12:41:37;16.61;;;1.46;;
17741;SDS011;8993;51.822;-2.268;2022-10-15T12:46:34;14.78;;;1.70;;
17741;SDS011;8993;51.822;-2.268;2022-10-15T12:51:37;13.05;;;1.17;;
17741;SDS011;8993;51.822;-2.268;2022-10-15T12:56:41;17.48;;;1.46;;
17741;SDS011;8993;51.822;-2.268;2022-10-15T13:01:49;12.90;;;1.33;;
17741;SDS011;8993;51.822;-2.268;2022-10-15T13:06:50;12.28;;;1.72;;
17741;SDS011;8993;51.822;-2.268;2022-10-15T13:11:56;15.52;;;1.45;;
17741;SDS011;8993;51.822;-2.268;2022-10-15T13:17:00;16.98;;;1.52;;
17741;SDS011;8993;51.822;-2.268;2022-10-15T13:22:04;17.94;;;1.55;;
17741;SDS011;8993;51.822;-2.268;2022-10-15T13:27:13;20.59;;;2.43;;
17741;SDS011;8993;51.822;-2.268;2022-10-15T13:32:12;16.43;;;2.49;;
17741;SDS011;8993;51.822;-2.268;2022-10-15T13:37:17;18.67;;;2.00;;
17741;SDS011;8993;51.822;-2.268;2022-10-15T13:42:21;17.41;;;1.72;;
17741;SDS011;8993;51.822;-2.268;2022-10-15T13:47:26;16.39;;;1.52;;
17741;SDS011;8993;51.822;-2.268;2022-10-15T13:52:29;13.86;;;1.33;;
17741;SDS011;8993;51.822;-2.268;2022-10-15T13:57:33;14.95;;;1.49;;
17741;SDS011;8993;51.822;-2.268;2022-10-15T14:02:37;16.39;;;1.62;;
17741;SDS011;8993;51.822;-2.268;2022-10-15T14:07:41;17.80;;;1.75;;
17741;SDS011;8993;51.822;-2.268;2022-10-15T14:12:46;20.69;;;2.11;;
17741;SDS011;8993;51.822;-2.268;2022-10-15T14:17:50;22.88;;;1.89;;
17741;SDS011;8993;51.822;-2.268;2022-10-15T14:22:55;22.83;;;2.53;;
17741;SDS011;8993;51.822;-2.268;2022-10-15T14:28:00;19.90;;;2.03;;
17741;SDS011;8993;51.822;-2.268;2022-10-15T14:33:04;20.66;;;2.09;;
17741;SDS011;8993;51.822;-2.268;2022-10-15T14:38:14;20.43;;;2.62;;
17741;SDS011;8993;51.822;-2.268;2022-10-15T14:43:14;22.90;;;2.34;;
17741;SDS011;8993;51.822;-2.268;2022-10-15T14:48:17;21.67;;;2.36;;
17741;SDS011;8993;51.822;-2.268;2022-10-15T14:53:23;20.68;;;2.12;;
17741;SDS011;8993;51.822;-2.268;2022-10-15T14:58:25;20.55;;;2.05;;
17741;SDS011;8993;51.822;-2.268;2022-10-15T15:03:32;22.67;;;2.34;;
17741;SDS011;8993;51.822;-2.268;2022-10-15T15:08:34;19.11;;;2.21;;
17741;SDS011;8993;51.822;-2.268;2022-10-15T15:13:40;16.10;;;1.66;;
17741;SDS011;8993;51.822;-2.268;2022-10-15T15:18:44;19.56;;;1.73;;
17741;SDS011;8993;51.822;-2.268;2022-10-15T15:23:52;14.35;;;1.52;;
17741;SDS011;8993;51.822;-2.268;2022-10-15T15:28:56;17.88;;;1.72;;
17741;SDS011;8993;51.822;-2.268;2022-10-15T15:34:00;18.33;;;1.60;;
17741;SDS011;8993;51.822;-2.268;2022-10-15T15:39:04;12.91;;;1.17;;
17741;SDS011;8993;51.822;-2.268;2022-10-15T15:44:10;14.91;;;1.35;;
17741;SDS011;8993;51.822;-2.268;2022-10-15T15:49:13;15.77;;;1.55;;
17741;SDS011;8993;51.822;-2.268;2022-10-15T15:54:18;15.67;;;1.37;;
17741;SDS011;8993;51.822;-2.268;2022-10-15T15:59:22;13.43;;;1.37;;
17741;SDS011;8993;51.822;-2.268;2022-10-15T16:04:27;18.69;;;1.78;;
17741;SDS011;8993;51.822;-2.268;2022-10-15T16:09:32;14.84;;;1.23;;
17741;SDS011;8993;51.822;-2.268;2022-10-15T16:14:37;14.55;;;1.35;;
17741;SDS011;8993;51.822;-2.268;2022-10-15T16:19:41;15.96;;;1.61;;
17741;SDS011;8993;51.822;-2.268;2022-10-15T16:24:46;17.22;;;1.45;;
17741;SDS011;8993;51.822;-2.268;2022-10-15T16:29:51;13.69;;;1.36;;
17741;SDS011;8993;51.822;-2.268;2022-10-15T16:34:55;12.10;;;1.30;;
17741;SDS011;8993;51.822;-2.268;2022-10-15T16:40:00;16.18;;;1.42;;
17741;SDS011;8993;51.822;-2.268;2022-10-15T16:45:05;14.91;;;1.40;;
17741;SDS011;8993;51.822;-2.268;2022-10-15T16:50:08;15.21;;;1.38;;
17741;SDS011;8993;51.822;-2.268;2022-10-15T16:55:13;14.02;;;1.40;;
17741;SDS011;8993;51.822;-2.268;2022-10-15T17:00:17;16.19;;;1.45;;
17741;SDS011;8993;51.822;-2.268;2022-10-15T17:05:21;15.51;;;1.50;;
17741;SDS011;8993;51.822;-2.268;2022-10-15T17:10:25;14.86;;;1.56;;
17741;SDS011;8993;51.822;-2.268;2022-10-15T17:15:30;14.71;;;1.39;;
17741;SDS011;8993;51.822;-2.268;2022-10-15T17:20:41;16.08;;;1.60;;
17741;SDS011;8993;51.822;-2.268;2022-10-15T17:25:38;15.19;;;1.73;;
17741;SDS011;8993;51.822;-2.268;2022-10-15T17:30:43;14.06;;;1.46;;
17741;SDS011;8993;51.822;-2.268;2022-10-15T17:35:48;16.63;;;1.54;;
17741;SDS011;8993;51.822;-2.268;2022-10-15T17:40:52;15.06;;;1.58;;
17741;SDS011;8993;51.822;-2.268;2022-10-15T17:45:59;15.67;;;1.69;;
17741;SDS011;8993;51.822;-2.268;2022-10-15T17:51:02;15.30;;;1.62;;
17741;SDS011;8993;51.822;-2.268;2022-10-15T17:56:10;16.20;;;1.68;;
17741;SDS011;8993;51.822;-2.268;2022-10-15T18:01:11;15.31;;;1.92;;
17741;SDS011;8993;51.822;-2.268;2022-10-15T18:06:16;16.08;;;1.56;;
17741;SDS011;8993;51.822;-2.268;2022-10-15T18:11:20;16.17;;;1.74;;
17741;SDS011;8993;51.822;-2.268;2022-10-15T18:16:23;18.16;;;1.77;;
17741;SDS011;8993;51.822;-2.268;2022-10-15T18:21:29;14.68;;;1.45;;
17741;SDS011;8993;51.822;-2.268;2022-10-15T18:26:33;13.31;;;1.55;;
17741;SDS011;8993;51.822;-2.268;2022-10-15T18:31:37;15.63;;;1.67;;
17741;SDS011;8993;51.822;-2.268;2022-10-15T18:36:42;19.25;;;1.67;;
17741;SDS011;8993;51.822;-2.268;2022-10-15T18:41:46;17.50;;;1.94;;
17741;SDS011;8993;51.822;-2.268;2022-10-15T18:46:50;13.99;;;1.40;;
17741;SDS011;8993;51.822;-2.268;2022-10-15T18:57:04;13.02;;;1.54;;
17741;SDS011;8993;51.822;-2.268;2022-10-15T19:07:13;17.58;;;1.73;;
17741;SDS011;8993;51.822;-2.268;2022-10-15T19:12:17;16.97;;;1.96;;
17741;SDS011;8993;51.822;-2.268;2022-10-15T19:17:21;17.99;;;2.06;;
17741;SDS011;8993;51.822;-2.268;2022-10-15T19:22:26;18.13;;;1.76;;
17741;SDS011;8993;51.822;-2.268;2022-10-15T19:27:30;19.47;;;1.82;;
17741;SDS011;8993;51.822;-2.268;2022-10-15T19:32:34;23.09;;;3.93;;
17741;SDS011;8993;51.822;-2.268;2022-10-15T19:37:39;20.22;;;3.56;;
17741;SDS011;8993;51.822;-2.268;2022-10-15T19:42:44;21.16;;;2.37;;
17741;SDS011;8993;51.822;-2.268;2022-10-15T19:47:48;18.82;;;2.03;;
17741;SDS011;8993;51.822;-2.268;2022-10-15T19:52:52;19.88;;;1.89;;
17741;SDS011;8993;51.822;-2.268;2022-10-15T19:57:57;22.91;;;1.95;;
17741;SDS011;8993;51.822;-2.268;2022-10-15T20:03:01;17.46;;;1.69;;
17741;SDS011;8993;51.822;-2.268;2022-10-15T20:08:06;19.90;;;1.80;;
17741;SDS011;8993;51.822;-2.268;2022-10-15T20:13:11;18.59;;;1.76;;
17741;SDS011;8993;51.822;-2.268;2022-10-15T20:18:16;21.27;;;1.85;;
17741;SDS011;8993;51.822;-2.268;2022-10-15T20:23:21;20.68;;;1.98;;
17741;SDS011;8993;51.822;-2.268;2022-10-15T20:28:25;19.33;;;2.01;;
17741;SDS011;8993;51.822;-2.268;2022-10-15T20:33:30;18.73;;;1.89;;
17741;SDS011;8993;51.822;-2.268;2022-10-15T20:38:34;18.71;;;1.95;;
17741;SDS011;8993;51.822;-2.268;2022-10-15T20:43:39;18.58;;;1.90;;
17741;SDS011;8993;51.822;-2.268;2022-10-15T20:48:43;18.12;;;1.91;;
17741;SDS011;8993;51.822;-2.268;2022-10-15T20:53:47;19.03;;;1.67;;
17741;SDS011;8993;51.822;-2.268;2022-10-15T20:58:52;21.12;;;1.63;;
17741;SDS011;8993;51.822;-2.268;2022-10-15T21:03:56;18.29;;;1.84;;
17741;SDS011;8993;51.822;-2.268;2022-10-15T21:09:02;20.93;;;1.94;;
17741;SDS011;8993;51.822;-2.268;2022-10-15T21:14:06;21.45;;;1.63;;
17741;SDS011;8993;51.822;-2.268;2022-10-15T21:19:10;20.14;;;1.71;;
17741;SDS011;8993;51.822;-2.268;2022-10-15T21:24:14;20.07;;;1.65;;
17741;SDS011;8993;51.822;-2.268;2022-10-15T21:29:18;19.65;;;1.98;;
17741;SDS011;8993;51.822;-2.268;2022-10-15T21:34:23;16.81;;;1.77;;
17741;SDS011;8993;51.822;-2.268;2022-10-15T21:39:28;20.54;;;1.97;;
17741;SDS011;8993;51.822;-2.268;2022-10-15T21:44:32;17.26;;;1.59;;
17741;SDS011;8993;51.822;-2.268;2022-10-15T21:49:36;20.19;;;1.88;;
17741;SDS011;8993;51.822;-2.268;2022-10-15T21:54:41;18.03;;;1.98;;
17741;SDS011;8993;51.822;-2.268;2022-10-15T21:59:45;17.23;;;1.63;;
17741;SDS011;8993;51.822;-2.268;2022-10-15T22:04:49;20.91;;;1.84;;
17741;SDS011;8993;51.822;-2.268;2022-10-15T22:09:53;15.49;;;1.54;;
17741;SDS011;8993;51.822;-2.268;2022-10-15T22:14:58;18.12;;;1.71;;
17741;SDS011;8993;51.822;-2.268;2022-10-15T22:20:02;16.52;;;1.56;;
17741;SDS011;8993;51.822;-2.268;2022-10-15T22:25:07;19.71;;;1.54;;
17741;SDS011;8993;51.822;-2.268;2022-10-15T22:30:10;17.37;;;1.68;;
17741;SDS011;8993;51.822;-2.268;2022-10-15T22:35:15;17.67;;;1.65;;
17741;SDS011;8993;51.822;-2.268;2022-10-15T22:40:19;18.47;;;1.67;;
17741;SDS011;8993;51.822;-2.268;2022-10-15T22:45:23;18.99;;;1.80;;
17741;SDS011;8993;51.822;-2.268;2022-10-15T22:50:27;17.66;;;1.51;;
17741;SDS011;8993;51.822;-2.268;2022-10-15T22:55:32;16.85;;;1.73;;
17741;SDS011;8993;51.822;-2.268;2022-10-15T23:00:36;12.10;;;1.33;;
17741;SDS011;8993;51.822;-2.268;2022-10-15T23:05:40;14.15;;;1.34;;
17741;SDS011;8993;51.822;-2.268;2022-10-15T23:10:44;15.13;;;1.20;;
17741;SDS011;8993;51.822;-2.268;2022-10-15T23:15:49;18.76;;;1.69;;
17741;SDS011;8993;51.822;-2.268;2022-10-15T23:20:53;17.41;;;1.63;;
17741;SDS011;8993;51.822;-2.268;2022-10-15T23:25:57;19.73;;;1.61;;
17741;SDS011;8993;51.822;-2.268;2022-10-15T23:31:02;19.97;;;1.59;;
17741;SDS011;8993;51.822;-2.268;2022-10-15T23:36:07;23.54;;;1.97;;
17741;SDS011;8993;51.822;-2.268;2022-10-15T23:41:11;24.24;;;1.92;;
17741;SDS011;8993;51.822;-2.268;2022-10-15T23:46:15;22.31;;;1.72;;
17741;SDS011;8993;51.822;-2.268;2022-10-15T23:51:20;19.09;;;1.88;;
17741;SDS011;8993;51.822;-2.268;2022-10-15T23:56:24;19.49;;;1.78;;
